Cambridge, Kansas
Current Conditions -  °F | °C
As of 6:54 AM on Monday 20 Oct 2014 (Local Time) from KWLD Reporting Station
Clear Clear  
Wind Chill: 57°   Ceiling: Unl
Heat Index: 57°   Visibility: 10mi
Dew Point: 54°   Wind: 3mph
Humidity: 89%   Direction: 130°SE
Pressure: 30.04"   Gusts: NA
Location:  37.32°N, 96.66°W
Report Text: KWLD 201154Z AUTO 13003KT 10SM CLR 14/12 A3004 RMK AO2 SLP167 T01390122 10167 20122 53006
Loading
Personal Weather Stations






























Interactive Weather Map
Tropical Storm Tracking
New forecast layout! Learn more

10-Day Weather Forecast

Advertisements
Track Severe Weather on mobile